Flight Track Log - Related Links

Times and Time Zones

All times are in EDT time to prevent confusion due to time zone crossing. See the FFT919 flight status page for this flight to view local times or setup timezone preferences in your user account.

Time Position Orientation Groundspeed Altitude Reporting Facility
EDT Latitude Longitude Course Direction KTS MPH feet Rate Location/Type
Sun 02:20:08 PM 40.2667 -74.8333 237° Southwest 132 152 1,300  Level Philadelphia TRACON
Sun 02:20:50 PM 40.2500 -74.8667 237° Southwest 143 165 2,300 1,833 Climbing Philadelphia TRACON
Sun 02:21:56 PM 40.1833 -74.9000 201° Southwest 221 254 4,600 2,238 Climbing Philadelphia TRACON
Sun 02:22:56 PM 40.1333 -74.9500 217° Southwest 230 265 7,000 1,252 Climbing Philadelphia TRACON
Sun 02:23:51 PM 40.0833 -74.9833 207° Southwest 279 321 7,000 835 Level Philadelphia TRACON
Sun 02:24:51 PM 40.0167 -75.0333 210° Southwest 271 312 8,600 1,500 Climbing Philadelphia TRACON
Sun 02:25:51 PM 39.9500 -75.0833 210° Southwest 286 329 10,000 424 Climbing Philadelphia TRACON
Sun 02:28:09 PM 39.7961 -75.1919 208° Southwest 290 334 10,000 490 Level Washington Center
Sun 02:29:07 PM 39.7214 -75.2436 208° Southwest 295 339 11,600 1,109 Climbing Washington Center
Sun 02:30:08 PM 39.6361 -75.3033 208° Southwest 322 371 12,200 1,587 Climbing Washington Center
Sun 02:31:08 PM 39.5403 -75.3225 189° South 336 387 14,800 1,900 Climbing Washington Center
Sun 02:32:08 PM 39.4383 -75.3389 187° South 358 412 16,000 992 Climbing Washington Center
Sun 02:33:09 PM 39.3236 -75.3608 188° South 378 435 16,800 496 Climbing Washington Center
Sun 02:34:09 PM 39.2194 -75.3744 186° South 378 435 17,000 458 Climbing Washington Center
Sun 02:35:07 PM 39.1175 -75.3964 189° South 383 441 17,700 958 Climbing Washington Center
Sun 02:36:08 PM 39.0319 -75.4072 186° South 383 441 18,900 1,835 Climbing Washington Center
Sun 02:37:08 PM 38.8986 -75.4289 187° South 395 455 21,400 2,033 Climbing Washington Center
Sun 02:38:09 PM 38.7839 -75.4478 187° South 412 474 23,000 1,587 Climbing Washington Center
Sun 02:39:09 PM 38.6631 -75.4614 185° South 423 487 24,600 1,678 Climbing Washington Center
Sun 02:40:07 PM 38.5422 -75.4803 187° South 441 507 26,300 1,729 Climbing Washington Center
Sun 02:41:07 PM 38.4211 -75.5017 188° South 446 513 28,000 850 Climbing Washington Center
Sun 02:42:07 PM 38.3275 -75.5281 192° South 446 513 28,000  Level Washington Center
Sun 02:43:08 PM 38.2086 -75.6075 208° Southwest 446 513 28,000  Level Washington Center
Sun 02:44:09 PM 38.1022 -75.7053 216° Southwest 447 514 28,000  Level Washington Center
Sun 02:45:07 PM 38.0061 -75.8053 219° Southwest 454 522 28,000  Level Washington Center
Sun 02:46:08 PM 37.8994 -75.8969 214° Southwest 460 529 28,000  Level Washington Center
Sun 02:47:08 PM 37.7992 -75.9939 217° Southwest 460 529 28,000 -99 Level Washington Center
Sun 02:48:09 PM 37.6986 -76.0958 219° Southwest 460 529 27,800 -347 Descending Washington Center
Sun 02:49:09 PM 37.5939 -76.1842 214° Southwest 460 529 27,300 -559 Descending Washington Center
Sun 02:50:07 PM 37.4933 -76.2775 216° Southwest 465 535 26,700 -610 Descending Washington Center
Sun 02:51:07 PM 37.3906 -76.3733 217° Southwest 465 535 26,100 -595 Descending Washington Center
Sun 02:52:08 PM 37.2919 -76.4664 217° Southwest 453 521 25,500 -590 Descending Washington Center
Sun 02:53:09 PM 37.2078 -76.5750 226° Southwest 447 514 24,900 -595 Descending Washington Center
Sun 02:54:09 PM 37.1314 -76.6964 232° Southwest 441 507 24,300 -610 Descending Washington Center
Sun 02:55:07 PM 37.0553 -76.8125 231° Southwest 441 507 23,700 -555 Descending Washington Center
Sun 02:56:08 PM 36.9831 -76.9258 231° Southwest 435 501 23,200 -541 Descending Washington Center
Sun 02:57:09 PM 36.9108 -77.0361 231° Southwest 430 495 22,600 -1,109 Descending Washington Center
Sun 02:58:07 PM 36.8386 -77.1489 231° Southwest 425 489 21,000 -1,300 Descending Washington Center
Sun 02:59:09 PM 36.7661 -77.2592 231° Southwest 420 483 20,000 -934 Descending Washington Center
Sun 03:00:09 PM 36.6958 -77.3664 231° Southwest 415 478 19,100 -966 Descending Washington Center
Sun 03:01:07 PM 36.6275 -77.4733 231° Southwest 410 472 18,100 -763 Descending Washington Center
Sun 03:02:07 PM 36.5589 -77.5753 230° Southwest 403 464 17,600 -750 Descending Washington Center
Sun 03:03:07 PM 36.4925 -77.6794 232° Southwest 397 457 16,600 -744 Descending Washington Center
Sun 03:04:08 PM 36.4281 -77.7811 232° Southwest 391 450 16,100 -393 Descending Washington Center
Sun 03:05:09 PM 36.3636 -77.8825 232° Southwest 386 444 15,800 -365 Descending Washington Center
Sun 03:06:03 PM 36.2928 -77.9861 230° Southwest 366 421 15,400 -353 Descending Washington Center
Sun 03:07:08 PM 36.2347 -78.0744 231° Southwest 379 436 15,100 -1,075 Descending Washington Center
Sun 03:08:17 PM 36.1547 -78.2006 232° Southwest 357 411 13,000 -1,600 Descending Washington Center
Sun 03:09:08 PM 36.1197 -78.2739 239° Southwest 362 417 11,900 -1,161 Descending Washington Center
Sun 03:10:21 PM 36.0564 -78.4053 239° Southwest 336 387 10,600 -942 Descending Washington Center
Sun 03:11:09 PM 36.0297 -78.4633 240° Southwest 338 389 10,000 -792 Descending Washington Center
Sun 03:12:07 PM 35.9842 -78.5414 234° Southwest 311 358 9,200 -814 Descending Washington Center
Sun 03:13:07 PM 35.9325 -78.6011 223° Southwest 278 320 8,400 -639 Descending Washington Center
Sun 03:14:09 PM 35.8792 -78.6503 217° Southwest 255 293 7,900 -246 Descending Washington Center
Sun 03:15:09 PM 35.8278 -78.6994 218° Southwest 238 274 7,900 -920 Level Washington Center
Sun 03:16:26 PM 35.7611 -78.7789 224° Southwest 236 272 5,800 -1,695 Descending Washington Center
Sun 03:17:20 PM 35.7406 -78.8444 249° West 239 275 4,200 -1,140 Descending Washington Center
Sun 03:18:27 PM 35.7917 -78.8800 331° Northwest 223 257 3,500 -1,091 Descending Washington Center
Sun 03:19:21 PM 35.8261 -78.8456 39° Northeast 158 182 2,000 -1,461 Descending Washington Center
Sun 03:20:22 PM 35.8542 -78.8108 45° Northeast 132 152 700 -1,279 Descending Washington Center
Sun 03:22:00 PM 35.8667 -78.7833 349° North  Level FlightAware Approximate

Login

Don't have an account? Register now (free) for customized features, flight alerts, and more!